Time;durP1;ratioP1;P1;durP2;ratioP2;P2;SDS_P1;SDS_P2;PMS_P1;PMS_P2;Temp;Humidity;BMP_temperature;BMP_pressure;BME280_temperature;BME280_humidity;BME280_pressure;Samples;Min_cycle;Max_cycle;Signal;HPM_P1;HPM_P2
2023/08/05 00:01:12;;;;;;;9.02;5.15;;;;;;;14.36;96.90;101629.88;6219611;23;20012;-69
2023/08/05 00:03:37;;;;;;;10.05;5.70;;;;;;;14.41;96.21;101624.53;6193597;23;20019;-69
2023/08/05 00:06:03;;;;;;;7.45;5.32;;;;;;;14.41;96.00;101628.06;6193444;23;20444;-69
2023/08/05 00:08:28;;;;;;;7.30;5.43;;;;;;;14.43;96.09;101623.63;6194680;23;20427;-69
2023/08/05 00:10:53;;;;;;;7.30;5.57;;;;;;;14.38;96.55;101617.56;6169677;23;20431;-69
2023/08/05 00:13:19;;;;;;;9.95;5.53;;;;;;;14.20;97.30;101622.19;6169821;23;20016;-69
2023/08/05 00:15:45;;;;;;;8.07;5.90;;;;;;;14.25;97.09;101615.97;6219194;23;20023;-69
2023/08/05 00:18:10;;;;;;;8.43;5.13;;;;;;;14.40;96.14;101614.91;6219044;23;20020;-69
2023/08/05 00:20:38;;;;;;;8.27;5.47;;;;;;;14.43;96.17;101612.22;6169360;23;20012;-69
2023/08/05 00:23:03;;;;;;;8.30;5.78;;;;;;;14.36;96.98;101608.78;6170574;23;20008;-69
2023/08/05 00:25:29;;;;;;;7.70;5.07;;;;;;;14.41;96.46;101609.59;6219307;23;20100;-69
2023/08/05 00:27:54;;;;;;;8.70;5.60;;;;;;;14.43;96.03;101607.81;6194440;23;20016;-69
2023/08/05 00:30:20;;;;;;;8.32;5.78;;;;;;;14.29;96.85;101609.78;6169390;23;20011;-70
2023/08/05 00:32:45;;;;;;;7.97;5.80;;;;;;;14.36;96.57;101611.44;6218771;23;20039;-70
2023/08/05 00:35:10;;;;;;;9.02;6.15;;;;;;;14.33;97.06;101603.56;6169103;23;20012;-70
2023/08/05 00:37:36;;;;;;;7.57;5.38;;;;;;;14.30;96.82;101601.84;6194108;23;20027;-70
2023/08/05 00:40:04;;;;;;;7.97;5.90;;;;;;;14.31;97.09;101606.22;6169729;23;20012;-70
2023/08/05 00:42:29;;;;;;;7.28;6.05;;;;;;;14.22;97.62;101595.81;6219272;23;20008;-70
2023/08/05 00:44:55;;;;;;;7.20;5.50;;;;;;;14.14;97.61;101603.84;6194242;23;20012;-70
2023/08/05 00:47:21;;;;;;;7.20;5.25;;;;;;;13.99;98.53;101604.03;6192965;23;20015;-70
2023/08/05 00:49:49;;;;;;;6.15;5.50;;;;;;;14.04;98.45;101594.31;6219463;23;20341;-70
2023/08/05 00:52:16;;;;;;;11.02;6.57;;;;;;;14.00;99.36;101589.97;6218730;23;20012;-71
2023/08/05 00:54:42;;;;;;;7.82;6.00;;;;;;;14.08;98.41;101585.50;6219425;23;20019;-71
2023/08/05 00:57:10;;;;;;;8.93;6.25;;;;;;;14.04;98.81;101581.16;6219593;23;20394;-70
2023/08/05 00:59:36;;;;;;;8.10;6.35;;;;;;;14.04;98.91;101579.38;6219002;23;20008;-70
2023/08/05 01:02:01;;;;;;;10.00;5.50;;;;;;;14.00;99.05;101575.03;6169180;23;20018;-70
2023/08/05 01:04:27;;;;;;;7.40;5.90;;;;;;;13.93;98.89;101569.88;6218373;23;20012;-70
2023/08/05 01:06:54;;;;;;;7.43;5.93;;;;;;;13.79;99.22;101568.31;6193910;23;20292;-70
2023/08/05 01:09:19;;;;;;;8.70;6.35;;;;;;;13.85;100.00;101562.97;6218765;23;20004;-70
2023/08/05 01:11:45;;;;;;;9.60;6.53;;;;;;;13.91;99.87;101562.00;6219396;23;20376;-71
2023/08/05 01:14:11;;;;;;;8.40;6.07;;;;;;;13.87;100.00;101555.03;6218955;23;20374;-70
2023/08/05 01:16:36;;;;;;;7.78;5.95;;;;;;;13.84;100.00;101553.31;6219158;23;20024;-70
2023/08/05 01:19:04;;;;;;;7.57;5.93;;;;;;;13.89;99.73;101557.66;6168234;23;20016;-70
2023/08/05 01:21:45;;;;;;;8.45;5.70;;;;;;;13.85;99.90;101549.78;6193971;23;20008;-70
2023/08/05 01:24:18;;;;;;;;;;;;;;;14.07;98.00;101562.66;6219181;23;20011;-70
2023/08/05 01:26:46;;;;;;;8.40;6.07;;;;;;;13.79;99.24;101541.97;6218706;23;19917;-70
2023/08/05 01:29:11;;;;;;;11.07;6.30;;;;;;;13.77;100.00;101548.16;6194077;23;20007;-70
2023/08/05 01:31:37;;;;;;;8.77;6.75;;;;;;;13.78;100.00;101549.91;6168916;23;20012;-70
2023/08/05 01:34:04;;;;;;;7.93;6.47;;;;;;;13.55;100.00;101558.97;6193091;23;20032;-70
2023/08/05 01:36:30;;;;;;;7.60;6.03;;;;;;;13.60;100.00;101551.00;6193891;23;20015;-71
2023/08/05 01:38:56;;;;;;;7.65;6.32;;;;;;;13.55;100.00;101553.72;6193344;23;20338;-70
2023/08/05 01:41:21;;;;;;;8.38;6.93;;;;;;;13.58;100.00;101555.44;6218450;23;20022;-70
2023/08/05 01:43:46;;;;;;;7.53;5.93;;;;;;;13.65;100.00;101557.97;6168915;23;20012;-70
2023/08/05 01:46:12;;;;;;;9.32;6.38;;;;;;;13.54;100.00;101551.09;6168668;23;20012;-70
2023/08/05 01:48:38;;;;;;;8.82;6.97;;;;;;;13.56;100.00;101549.31;6217582;23;20014;-70
2023/08/05 01:51:03;;;;;;;7.00;6.15;;;;;;;13.61;100.00;101558.03;6168745;23;20517;-70
2023/08/05 01:53:28;;;;;;;9.30;5.85;;;;;;;13.61;100.00;101558.03;6218906;23;20023;-70
2023/08/05 01:55:54;;;;;;;9.68;7.18;;;;;;;13.59;100.00;101550.16;6218487;23;20070;-70
2023/08/05 01:58:20;;;;;;;9.27;6.70;;;;;;;13.56;100.00;101550.19;6193367;23;20351;-70
2023/08/05 02:00:50;;;;;;;11.35;7.30;;;;;;;13.58;100.00;101544.91;6167426;23;20018;-70
2023/08/05 02:03:15;;;;;;;9.13;7.18;;;;;;;13.62;100.00;101551.84;6190602;23;20126;-70
2023/08/05 02:05:40;;;;;;;9.68;6.90;;;;;;;13.53;100.00;101547.56;6193439;23;20012;-70
2023/08/05 02:08:07;;;;;;;10.43;6.80;;;;;;;13.51;100.00;101552.84;6192788;23;20012;-70
2023/08/05 02:10:32;;;;;;;9.27;7.20;;;;;;;13.42;100.00;101546.84;6245492;23;20047;-70
2023/08/05 02:12:58;;;;;;;9.85;6.70;;;;;;;13.42;100.00;101550.34;6168172;23;20015;-70
2023/08/05 02:15:23;;;;;;;11.10;6.90;;;;;;;13.49;100.00;101556.44;6168208;23;20023;-70
2023/08/05 02:17:49;;;;;;;8.25;6.35;;;;;;;13.52;100.00;101554.63;6192686;23;20018;-70
2023/08/05 02:20:15;;;;;;;11.43;7.28;;;;;;;13.45;100.00;101554.72;6168033;23;20062;-70
2023/08/05 02:22:41;;;;;;;9.43;7.00;;;;;;;13.38;100.00;101567.06;6217958;23;20319;-70
2023/08/05 02:25:07;;;;;;;8.25;6.78;;;;;;;13.31;100.00;101557.47;6218002;22;20047;-70
2023/08/05 02:27:32;;;;;;;7.47;6.55;;;;;;;13.22;100.00;101560.22;6193143;23;20008;-70
2023/08/05 02:29:58;;;;;;;10.20;7.40;;;;;;;13.12;100.00;101555.03;6193432;23;20008;-70
2023/08/05 02:32:23;;;;;;;9.90;7.00;;;;;;;13.12;100.00;101546.28;6191607;23;20362;-70
2023/08/05 02:34:48;;;;;;;8.35;7.20;;;;;;;13.13;100.00;101551.53;6167595;23;20019;-69
2023/08/05 02:37:14;;;;;;;10.32;6.47;;;;;;;13.16;100.00;101540.97;6192498;23;20067;-69
2023/08/05 02:39:40;;;;;;;9.98;7.10;;;;;;;13.06;100.00;101535.81;6193025;23;20012;-70
2023/08/05 02:42:09;;;;;;;8.98;7.15;;;;;;;13.04;100.00;101533.19;6168621;23;20008;-70
2023/08/05 02:44:34;;;;;;;8.55;6.75;;;;;;;12.99;100.00;101529.78;6193400;23;20012;-70
2023/08/05 02:47:00;;;;;;;9.88;6.75;;;;;;;12.87;100.00;101527.25;6192647;23;20349;-70
2023/08/05 02:49:25;;;;;;;10.40;7.53;;;;;;;12.87;100.00;101519.38;6167239;23;20004;-70
2023/08/05 02:51:50;;;;;;;9.82;6.78;;;;;;;12.79;100.00;101525.56;6192491;23;20065;-70
2023/08/05 02:54:16;;;;;;;12.65;7.18;;;;;;;12.81;100.00;101518.56;6168139;23;20065;-70
2023/08/05 02:56:42;;;;;;;9.02;6.78;;;;;;;12.89;100.00;101526.34;6192798;23;20461;-70
2023/08/05 02:59:07;;;;;;;7.32;6.60;;;;;;;12.94;100.00;101528.94;6166857;23;20008;-70
2023/08/05 03:01:35;;;;;;;7.72;6.53;;;;;;;13.00;100.00;101531.50;6217813;23;20016;-70
2023/08/05 03:04:00;;;;;;;11.02;7.63;;;;;;;13.05;100.00;101519.16;6167367;23;20070;-69
2023/08/05 03:06:25;;;;;;;8.85;7.60;;;;;;;13.01;100.00;101514.81;6191612;23;20015;-68
2023/08/05 03:08:51;;;;;;;11.38;8.55;;;;;;;13.15;100.00;101518.16;6192203;23;20008;-68
2023/08/05 03:11:16;;;;;;;12.88;8.68;;;;;;;13.14;100.00;101515.56;6192864;23;20138;-68
2023/08/05 03:13:42;;;;;;;10.32;7.82;;;;;;;13.14;100.00;101507.66;6192879;23;20440;-68
2023/08/05 03:16:12;;;;;;;12.27;7.93;;;;;;;13.21;100.00;101506.69;6167267;23;20115;-68
2023/08/05 03:18:37;;;;;;;11.98;7.90;;;;;;;13.26;100.00;101502.25;6216986;23;20008;-68
2023/08/05 03:21:04;;;;;;;11.20;7.85;;;;;;;13.26;100.00;101496.09;6193022;23;20050;-69
2023/08/05 03:23:29;;;;;;;12.85;8.05;;;;;;;13.29;100.00;101499.59;6192051;23;20062;-68
2023/08/05 03:25:54;;;;;;;11.02;7.72;;;;;;;13.28;100.00;101503.09;6166735;23;20027;-69
2023/08/05 03:28:20;;;;;;;10.13;8.40;;;;;;;13.29;100.00;101499.59;6167933;23;20015;-69
2023/08/05 03:30:46;;;;;;;11.75;8.23;;;;;;;13.25;100.00;101502.28;6192220;23;20015;-68
2023/08/05 03:33:11;;;;;;;13.23;8.32;;;;;;;13.21;100.00;101503.22;6191988;23;20012;-68
2023/08/05 03:35:42;;;;;;;10.85;8.45;;;;;;;13.20;100.00;101504.94;6192658;23;20036;-68
2023/08/05 03:38:07;;;;;;;;;;;;;;;13.40;100.00;101499.47;6191998;23;20035;-68
2023/08/05 03:40:32;;;;;;;8.98;7.70;;;;;;;13.28;100.00;101491.72;6217184;23;20298;-68
2023/08/05 03:42:58;;;;;;;11.63;8.40;;;;;;;13.24;100.00;101482.97;6167838;23;20043;-69
2023/08/05 03:45:23;;;;;;;12.15;8.85;;;;;;;13.22;100.00;101482.13;6192560;23;20538;-68
2023/08/05 03:47:51;;;;;;;9.55;8.10;;;;;;;13.20;100.00;101475.13;6167041;23;20019;-68
2023/08/05 03:50:17;;;;;;;10.63;8.23;;;;;;;13.28;100.00;101470.66;6168954;23;20087;-68
2023/08/05 03:52:43;;;;;;;10.25;8.48;;;;;;;13.15;100.00;101467.31;6192547;23;20161;-69
2023/08/05 03:55:08;;;;;;;11.32;9.27;;;;;;;13.10;100.00;101470.00;6167908;23;20016;-69
2023/08/05 03:57:35;;;;;;;12.25;9.02;;;;;;;13.16;100.00;101462.03;6166828;23;20016;-68
2023/08/05 04:00:00;;;;;;;14.02;9.18;;;;;;;13.11;100.00;101455.94;6190870;23;20150;-69
2023/08/05 04:02:26;;;;;;;11.75;9.00;;;;;;;13.09;100.00;101447.22;6166608;23;20016;-69
2023/08/05 04:04:52;;;;;;;10.23;8.90;;;;;;;13.07;100.00;101446.34;6192678;23;20090;-69
2023/08/05 04:07:19;;;;;;;12.43;9.10;;;;;;;13.06;100.00;101446.34;6192114;23;20023;-69
2023/08/05 04:09:47;;;;;;;14.15;9.82;;;;;;;13.01;100.00;101446.41;6168247;23;20437;-70
2023/08/05 04:12:14;;;;;;;11.23;9.63;;;;;;;12.95;100.00;101443.88;6219228;23;20322;-70
2023/08/05 04:14:43;;;;;;;12.88;8.98;;;;;;;12.95;100.00;101451.75;6193680;23;20008;-70
2023/08/05 04:17:09;;;;;;;12.90;9.32;;;;;;;12.92;100.00;101449.19;6218572;23;20426;-70
2023/08/05 04:19:34;;;;;;;11.23;9.50;;;;;;;12.93;100.00;101451.78;6168781;23;20100;-70
2023/08/05 04:22:01;;;;;;;13.57;10.18;;;;;;;12.92;100.00;101452.66;6193990;23;20022;-70
2023/08/05 04:24:28;;;;;;;12.57;9.07;;;;;;;12.96;100.00;101450.88;6193719;23;20019;-70
2023/08/05 04:26:55;;;;;;;11.73;9.90;;;;;;;12.93;100.00;101448.25;6194099;23;20027;-70
2023/08/05 04:29:22;;;;;;;10.65;9.48;;;;;;;12.95;100.00;101446.50;6218333;23;20026;-70
2023/08/05 04:31:48;;;;;;;13.23;9.48;;;;;;;12.92;100.00;101436.88;6193290;23;20022;-70
2023/08/05 04:34:14;;;;;;;11.32;8.57;;;;;;;12.92;100.00;101421.09;6168482;23;20409;-70
2023/08/05 04:36:39;;;;;;;12.70;9.90;;;;;;;12.89;100.00;101426.41;6193932;23;20012;-70
2023/08/05 04:39:06;;;;;;;10.77;9.10;;;;;;;13.01;100.00;101414.84;6194009;23;20349;-70
2023/08/05 04:41:32;;;;;;;11.32;9.13;;;;;;;13.03;100.00;101412.19;6218990;23;20323;-68
2023/08/05 04:43:58;;;;;;;12.13;9.65;;;;;;;13.12;100.00;101402.44;6219060;23;20369;-68
2023/08/05 04:46:24;;;;;;;13.52;9.77;;;;;;;13.41;100.00;101406.44;6192820;23;20069;-68
2023/08/05 04:48:52;;;;;;;13.85;9.88;;;;;;;13.59;100.00;101401.78;6192880;23;20001;-68
2023/08/05 04:51:18;;;;;;;10.98;9.85;;;;;;;13.56;100.00;101405.38;6194609;23;20038;-69
2023/08/05 04:53:43;;;;;;;16.38;10.27;;;;;;;13.49;100.00;101404.59;6193963;23;20533;-68
2023/08/05 04:56:10;;;;;;;13.43;10.45;;;;;;;13.38;100.00;101395.97;6169077;23;20012;-69
2023/08/05 04:58:35;;;;;;;11.45;9.82;;;;;;;13.44;100.00;101406.41;6216608;23;20005;-68
2023/08/05 05:01:00;;;;;;;13.00;10.63;;;;;;;13.42;100.00;101404.66;6167589;23;20019;-68
2023/08/05 05:03:26;;;;;;;13.27;10.43;;;;;;;13.47;100.00;101398.44;6191796;23;20319;-69
2023/08/05 05:05:51;;;;;;;20.02;11.13;;;;;;;13.84;100.00;101400.50;6168718;23;20015;-68
2023/08/05 05:08:17;;;;;;;14.25;10.20;;;;;;;14.26;100.00;101404.22;6193152;23;20012;-69
2023/08/05 05:10:46;;;;;;;11.32;10.13;;;;;;;14.31;100.00;101399.69;6193610;23;20028;-69
2023/08/05 05:13:12;;;;;;;13.10;9.80;;;;;;;14.61;100.00;101406.19;6168990;23;20016;-69
2023/08/05 05:15:37;;;;;;;14.02;9.77;;;;;;;14.53;99.08;101403.69;6217365;23;20061;-68
2023/08/05 05:18:03;;;;;;;12.18;10.48;;;;;;;14.35;99.70;101410.19;6216389;23;20004;-69
2023/08/05 05:20:29;;;;;;;11.93;9.90;;;;;;;14.06;100.00;101397.50;6168920;23;20012;-68
2023/08/05 05:22:54;;;;;;;12.38;10.18;;;;;;;13.89;100.00;101394.31;6168164;23;20016;-68
2023/08/05 05:25:20;;;;;;;14.32;10.68;;;;;;;13.78;100.00;101405.88;6193128;23;20093;-69
2023/08/05 05:27:45;;;;;;;13.10;10.18;;;;;;;13.74;100.00;101396.28;6168383;23;20087;-69
2023/08/05 05:30:11;;;;;;;13.43;10.77;;;;;;;13.68;100.00;101399.03;6193362;23;20497;-69
2023/08/05 05:32:36;;;;;;;13.25;10.85;;;;;;;13.63;100.00;101393.84;6217321;23;20018;-69
2023/08/05 05:35:02;;;;;;;12.20;10.90;;;;;;;13.57;100.00;101388.66;6217153;23;20019;-69
2023/08/05 05:37:28;;;;;;;16.15;11.18;;;;;;;13.55;100.00;101387.81;6193247;23;20012;-70
2023/08/05 05:39:54;;;;;;;13.43;11.85;;;;;;;13.58;100.00;101384.28;6193130;23;20004;-69
2023/08/05 05:42:19;;;;;;;14.98;11.90;;;;;;;13.61;100.00;101392.97;6192839;23;20008;-68
2023/08/05 05:44:50;;;;;;;12.90;11.38;;;;;;;13.58;100.00;101379.00;6168320;23;20008;-69
2023/08/05 05:47:16;;;;;;;12.93;11.48;;;;;;;13.60;100.00;101387.75;6190403;23;20016;-68
2023/08/05 05:49:42;;;;;;;12.85;11.55;;;;;;;13.63;100.00;101393.84;6167900;23;20426;-69
2023/08/05 05:52:07;;;;;;;12.93;11.40;;;;;;;13.69;100.00;101393.75;6166105;23;20011;-69
2023/08/05 05:54:33;;;;;;;13.70;11.73;;;;;;;13.69;100.00;101392.84;6218028;23;20000;-69
2023/08/05 05:56:58;;;;;;;14.60;12.10;;;;;;;13.72;100.00;101390.19;6166663;23;20016;-70
2023/08/05 05:59:25;;;;;;;14.15;11.82;;;;;;;13.75;100.00;101384.88;6192568;23;20063;-70
2023/08/05 06:01:50;;;;;;;14.30;11.48;;;;;;;13.74;100.00;101385.75;6192649;23;20008;-70
2023/08/05 06:04:15;;;;;;;14.27;11.55;;;;;;;13.81;100.00;101376.84;6191729;23;20019;-70
2023/08/05 06:06:41;;;;;;;13.88;11.15;;;;;;;14.06;100.00;101386.13;6167648;23;20394;-70
2023/08/05 06:09:07;;;;;;;12.65;10.73;;;;;;;14.35;100.00;101377.66;6191482;23;20383;-70
2023/08/05 06:11:32;;;;;;;13.15;10.95;;;;;;;15.79;100.00;101378.13;6217306;23;20016;-70
2023/08/05 06:13:58;;;;;;;12.15;9.73;;;;;;;17.69;91.75;101385.09;6168260;23;20019;-70
2023/08/05 06:16:24;;;;;;;11.45;8.93;;;;;;;18.23;83.30;101380.63;6217327;23;20004;-71
2023/08/05 06:18:49;;;;;;;11.32;9.38;;;;;;;17.82;83.51;101367.84;6189014;23;20012;-70
2023/08/05 06:21:15;;;;;;;10.88;8.85;;;;;;;17.44;84.24;101375.25;6191460;23;20386;-70
2023/08/05 06:23:40;;;;;;;11.73;9.68;;;;;;;17.00;86.47;101373.09;6166220;23;20012;-70
2023/08/05 06:26:06;;;;;;;10.70;9.00;;;;;;;16.87;88.39;101369.06;6192622;23;20141;-71
2023/08/05 06:28:31;;;;;;;12.63;9.40;;;;;;;17.04;87.83;101368.56;6166555;23;20430;-69
2023/08/05 06:30:57;;;;;;;12.95;8.93;;;;;;;17.07;86.80;101376.44;6192401;23;20008;-69
2023/08/05 06:33:22;;;;;;;11.70;8.82;;;;;;;17.21;86.42;101371.56;6192304;23;20016;-69
2023/08/05 06:35:47;;;;;;;10.10;8.35;;;;;;;17.14;86.59;101367.38;6216810;23;20016;-69
2023/08/05 06:38:13;;;;;;;12.15;8.48;;;;;;;17.55;85.32;101365.19;6191929;23;20012;-69
2023/08/05 06:40:41;;;;;;;12.80;8.30;;;;;;;17.25;85.18;101372.31;6166254;23;20015;-69
2023/08/05 06:43:07;;;;;;;11.73;9.40;;;;;;;17.38;84.78;101363.06;6191979;23;20070;-69
2023/08/05 06:45:32;;;;;;;11.07;9.77;;;;;;;17.08;84.69;101367.53;6168225;23;20015;-69
2023/08/05 06:47:59;;;;;;;11.50;10.15;;;;;;;16.97;86.40;101370.53;6167897;23;20012;-69
2023/08/05 06:50:24;;;;;;;10.95;9.82;;;;;;;16.94;86.79;101355.59;6193420;23;20023;-69
2023/08/05 06:52:50;;;;;;;14.43;9.82;;;;;;;16.84;86.85;101354.13;6218084;23;20008;-69
2023/08/05 06:55:18;;;;;;;12.90;9.02;;;;;;;16.69;88.47;101355.41;6193212;23;20434;-69
2023/08/05 06:57:48;;;;;;;10.60;8.93;;;;;;;16.60;89.30;101361.00;6218011;23;20106;-69
2023/08/05 07:00:14;;;;;;;12.32;9.05;;;;;;;16.60;89.11;101363.63;6169455;23;20012;-70
2023/08/05 07:02:39;;;;;;;11.10;9.38;;;;;;;16.47;88.98;101357.81;6192601;23;20018;-69
2023/08/05 07:05:04;;;;;;;9.55;8.50;;;;;;;16.46;88.85;101358.72;6193144;23;20011;-70
2023/08/05 07:07:33;;;;;;;11.48;9.48;;;;;;;16.44;90.00;101348.19;6217490;23;20012;-71
2023/08/05 07:10:02;;;;;;;11.30;8.82;;;;;;;16.60;89.90;101340.69;6193106;23;20012;-71
2023/08/05 07:12:28;;;;;;;11.65;8.85;;;;;;;16.74;89.58;101336.78;6193389;23;20012;-71
2023/08/05 07:14:53;;;;;;;18.77;9.52;;;;;;;16.94;90.59;101331.78;6168209;23;20012;-71
2023/08/05 07:17:19;;;;;;;10.05;8.75;;;;;;;17.10;88.23;101331.31;6167288;23;20008;-71
2023/08/05 07:19:44;;;;;;;13.68;8.32;;;;;;;17.19;87.01;101328.38;6168437;23;20035;-71
2023/08/05 07:22:10;;;;;;;10.55;7.90;;;;;;;17.15;85.29;101332.03;6192547;23;20051;-70
2023/08/05 07:24:35;;;;;;;10.40;8.13;;;;;;;16.95;84.93;101328.22;6217868;23;20011;-70
2023/08/05 07:27:01;;;;;;;9.00;7.88;;;;;;;16.90;85.42;101326.63;6212772;23;20025;-71
2023/08/05 07:29:26;;;;;;;9.68;7.80;;;;;;;16.86;86.04;101325.81;6163027;23;20308;-71
2023/08/05 07:31:51;;;;;;;9.38;7.63;;;;;;;16.85;85.97;101318.81;6162873;23;20016;-71
2023/08/05 07:34:17;;;;;;;10.73;7.72;;;;;;;16.78;86.04;101325.19;6186929;23;20012;-71
2023/08/05 07:36:46;;;;;;;10.88;7.80;;;;;;;16.77;86.48;101323.47;6163036;23;20087;-70
2023/08/05 07:39:11;;;;;;;8.57;6.78;;;;;;;16.75;84.80;101330.56;6211940;23;20431;-71
2023/08/05 07:41:37;;;;;;;9.20;7.35;;;;;;;16.84;87.16;101332.94;6163246;23;20012;-71
2023/08/05 07:44:03;;;;;;;8.35;6.85;;;;;;;16.83;85.43;101330.34;6187763;23;20023;-70
2023/08/05 07:46:36;;;;;;;7.80;6.82;;;;;;;16.95;86.51;101327.34;6188603;23;20059;-71
2023/08/05 07:49:03;;;;;;;7.53;5.65;;;;;;;16.98;83.60;101327.25;6213691;23;20431;-70
2023/08/05 07:51:30;;;;;;;7.63;5.45;;;;;;;16.97;83.47;101320.25;6190111;23;20143;-71
2023/08/05 07:53:57;;;;;;;8.68;5.47;;;;;;;17.15;85.45;101310.84;6214790;23;20028;-71
2023/08/05 07:56:23;;;;;;;5.13;4.25;;;;;;;17.19;82.25;101312.47;6214847;23;20008;-71
2023/08/05 07:58:49;;;;;;;6.00;4.30;;;;;;;17.13;80.45;101310.03;6189450;23;20028;-71
2023/08/05 08:01:22;;;;;;;6.07;4.35;;;;;;;17.14;81.42;101304.69;6189181;23;20035;-71
2023/08/05 08:03:51;;;;;;;6.07;4.03;;;;;;;17.34;81.65;101302.28;6166574;23;20012;-71
2023/08/05 08:06:18;;;;;;;5.35;3.85;;;;;;;17.52;81.94;101287.59;6189921;23;20084;-71
2023/08/05 08:08:43;;;;;;;5.03;3.65;;;;;;;17.57;81.30;101286.53;6214528;23;20331;-70
2023/08/05 08:11:10;;;;;;;4.72;3.38;;;;;;;17.71;80.92;101280.72;6189398;23;20016;-71
2023/08/05 08:13:36;;;;;;;4.72;3.60;;;;;;;17.81;78.97;101282.16;6189846;23;20012;-71
2023/08/05 08:16:01;;;;;;;6.00;3.90;;;;;;;17.80;79.29;101276.88;6214395;23;20434;-71
2023/08/05 08:18:27;;;;;;;4.00;3.22;;;;;;;17.78;79.42;101276.94;6213872;23;20019;-71
2023/08/05 08:20:52;;;;;;;6.57;3.63;;;;;;;17.78;80.41;101278.75;6189505;23;20489;-71
2023/08/05 08:23:22;;;;;;;5.88;4.10;;;;;;;17.64;77.69;101277.44;6214635;23;20009;-71
2023/08/05 08:25:47;;;;;;;5.65;3.90;;;;;;;17.47;77.58;101270.06;6213918;23;20178;-70
2023/08/05 08:28:13;;;;;;;6.00;4.10;;;;;;;17.42;79.86;101258.75;6189331;23;20419;-71
2023/08/05 08:30:38;;;;;;;7.78;3.90;;;;;;;17.49;80.08;101262.91;6213493;23;20139;-71
2023/08/05 08:33:04;;;;;;;6.28;4.15;;;;;;;17.57;80.27;101256.47;6188778;23;20455;-71
2023/08/05 08:35:30;;;;;;;5.18;3.60;;;;;;;17.53;77.87;101261.03;6189194;23;20008;-69
2023/08/05 08:37:55;;;;;;;5.75;4.15;;;;;;;17.55;78.80;101251.25;6164617;23;20019;-69
2023/08/05 08:40:21;;;;;;;5.82;3.92;;;;;;;17.73;79.84;101243.56;6214274;23;20015;-69
2023/08/05 08:42:49;;;;;;;4.38;3.20;;;;;;;17.85;80.13;101240.50;6214444;23;20091;-69
2023/08/05 08:45:16;;;;;;;3.58;3.15;;;;;;;18.04;80.39;101242.50;6214200;23;20020;-70
2023/08/05 08:47:44;;;;;;;5.40;4.00;;;;;;;18.12;77.14;101236.00;6213322;23;20080;-70
2023/08/05 08:50:10;;;;;;;6.85;4.45;;;;;;;18.26;76.79;101242.56;6188998;23;20005;-70
2023/08/05 08:52:38;;;;;;;5.25;4.18;;;;;;;18.43;78.82;101231.31;6211682;23;20016;-69
2023/08/05 08:55:03;;;;;;;6.25;3.38;;;;;;;18.49;76.09;101229.31;6188352;23;20015;-69
2023/08/05 08:57:29;;;;;;;5.20;4.70;;;;;;;18.46;74.78;101223.22;6213393;23;20008;-69
2023/08/05 08:59:55;;;;;;;5.47;4.40;;;;;;;18.25;74.18;101228.44;6213746;23;20005;-70
2023/08/05 09:02:24;;;;;;;6.18;4.20;;;;;;;18.13;76.40;101215.63;6187970;23;20012;-70
2023/08/05 09:04:51;;;;;;;6.25;4.50;;;;;;;18.29;77.31;101218.59;6213560;23;20005;-70
2023/08/05 09:07:22;;;;;;;6.90;4.32;;;;;;;18.52;76.20;101212.41;6213956;23;20004;-69
2023/08/05 09:09:47;;;;;;;5.35;4.28;;;;;;;18.57;73.20;101209.56;6189318;23;20324;-69
2023/08/05 09:12:14;;;;;;;5.82;4.45;;;;;;;18.55;73.24;101212.28;6187305;23;20031;-70
2023/08/05 09:14:40;;;;;;;11.55;3.80;;;;;;;18.51;73.66;101194.75;6188316;23;20016;-70
2023/08/05 09:25:03;;;;;;;4.72;3.60;;;;;;;18.51;72.18;101168.22;6202871;23;20025;-68
2023/08/05 09:33:10;;;;;;;3.85;2.80;;;;;;;18.47;73.20;101166.59;6207139;22;20405;-68
2023/08/05 10:47:04;;;;;;;5.35;2.80;;;;;;;18.35;74.70;101069.78;6214721;23;20025;-69
2023/08/05 10:49:30;;;;;;;4.50;3.35;;;;;;;18.21;76.08;101065.03;6162618;23;20020;-69
2023/08/05 10:51:55;;;;;;;4.00;3.13;;;;;;;18.05;75.81;101072.75;6163877;23;20005;-69
2023/08/05 10:54:23;;;;;;;6.90;3.42;;;;;;;17.96;77.89;101070.47;6162758;23;20040;-69
2023/08/05 10:56:48;;;;;;;4.13;3.72;;;;;;;17.82;77.70;101074.47;6164292;23;20008;-69
2023/08/05 10:59:15;;;;;;;6.45;4.70;;;;;;;17.75;77.27;101066.81;6163207;23;20012;-68
2023/08/05 11:01:54;;;;;;;6.53;4.22;;;;;;;17.73;76.91;101071.28;6163080;23;20009;-69
2023/08/05 11:04:32;;;;;;;6.63;4.15;;;;;;;17.78;77.17;101059.59;6162477;23;20038;-69
2023/08/05 11:07:00;;;;;;;6.90;4.80;;;;;;;17.92;75.41;101064.41;6162602;23;20505;-69
2023/08/05 11:09:34;;;;;;;5.85;4.32;;;;;;;18.18;76.96;101057.22;6186773;23;20058;-69
2023/08/05 11:12:00;;;;;;;5.25;3.88;;;;;;;18.40;74.57;101051.03;6162800;23;20012;-66
2023/08/05 11:14:27;;;;;;;6.68;3.30;;;;;;;18.60;72.76;101045.75;6188166;23;20009;-66
2023/08/05 11:17:00;;;;;;;5.10;3.35;;;;;;;18.78;73.60;101048.56;6187356;23;20012;-66
2023/08/05 11:19:26;;;;;;;4.90;3.08;;;;;;;18.75;68.56;101044.25;6162024;23;20009;-66
2023/08/05 11:21:51;;;;;;;5.22;2.92;;;;;;;18.84;69.47;101035.03;6164696;23;20051;-67
2023/08/05 11:24:17;;;;;;;3.20;2.20;;;;;;;19.07;69.82;101038.50;6216264;23;20031;-67
2023/08/05 11:26:43;;;;;;;4.60;3.00;;;;;;;19.28;70.02;101037.53;6165347;23;20016;-67
2023/08/05 11:29:09;;;;;;;5.18;2.53;;;;;;;19.37;69.49;101029.13;6164399;23;20009;-67
2023/08/05 11:31:34;;;;;;;3.80;2.63;;;;;;;19.54;70.80;101023.06;6163777;23;20016;-67
2023/08/05 11:34:00;;;;;;;3.75;2.65;;;;;;;19.54;66.90;101016.88;6189296;23;20012;-67
2023/08/05 11:36:28;;;;;;;4.43;2.65;;;;;;;19.35;65.72;101012.41;6165065;23;20013;-69
2023/08/05 11:38:57;;;;;;;5.32;2.80;;;;;;;19.33;66.16;101011.59;6164719;23;20606;-66
2023/08/05 11:41:24;;;;;;;4.63;2.50;;;;;;;19.32;67.06;101007.25;6189901;23;20015;-69
2023/08/05 11:43:50;;;;;;;3.80;2.47;;;;;;;19.31;68.01;101016.16;6165239;23;20062;-69
2023/08/05 11:46:27;;;;;;;5.13;2.47;;;;;;;19.23;67.78;101020.94;6164664;23;20557;-69
2023/08/05 11:49:09;;;;;;;2.92;2.50;;;;;;;19.10;67.36;101004.69;6188454;23;20091;-70
2023/08/05 11:51:48;;;;;;;3.90;2.40;;;;;;;18.97;67.47;100991.09;6215969;23;20000;-69
2023/08/05 11:54:25;;;;;;;4.93;2.65;;;;;;;18.85;67.87;100989.81;6164574;23;20012;-69
2023/08/05 11:56:50;;;;;;;4.15;2.58;;;;;;;18.73;68.10;100992.16;6165186;23;20008;-70
2023/08/05 11:59:16;;;;;;;7.68;2.70;;;;;;;18.76;70.64;100994.66;6140192;23;20020;-70
2023/08/05 12:01:42;;;;;;;4.72;2.60;;;;;;;18.74;69.57;100993.88;6189944;23;20015;-69
2023/08/05 12:04:08;;;;;;;4.78;2.78;;;;;;;18.68;68.85;100997.66;6163717;23;20012;-69
2023/08/05 12:06:34;;;;;;;3.55;2.60;;;;;;;18.64;69.42;100994.25;6165039;23;20331;-69
2023/08/05 12:09:00;;;;;;;7.63;3.08;;;;;;;18.57;70.72;100997.25;6164672;23;20036;-69
2023/08/05 12:11:26;;;;;;;3.60;2.45;;;;;;;18.46;68.59;100995.94;6165336;23;20100;-69
2023/08/05 12:13:51;;;;;;;5.75;2.60;;;;;;;18.41;68.50;100991.75;6165007;23;20012;-69
2023/08/05 12:16:17;;;;;;;3.95;2.35;;;;;;;18.27;68.87;100993.16;6164723;23;20324;-69
2023/08/05 12:18:46;;;;;;;3.05;2.20;;;;;;;18.18;67.97;100985.59;6163557;23;20017;-69
2023/08/05 12:21:13;;;;;;;3.00;2.33;;;;;;;17.99;66.73;100975.75;6164770;23;20423;-69
2023/08/05 12:23:41;;;;;;;4.22;2.20;;;;;;;17.86;67.56;100969.19;6189570;23;20060;-69
2023/08/05 12:26:07;;;;;;;3.58;1.83;;;;;;;17.70;67.30;100968.06;6165178;23;20095;-69
2023/08/05 12:28:33;;;;;;;4.40;2.20;;;;;;;17.56;68.65;100963.31;6189344;23;20040;-69
2023/08/05 12:30:58;;;;;;;3.65;1.90;;;;;;;17.41;67.71;100952.41;6189232;23;20067;-69
2023/08/05 12:33:24;;;;;;;2.75;1.98;;;;;;;17.29;69.82;100947.56;6163533;23;20142;-70
2023/08/05 12:35:49;;;;;;;2.60;1.77;;;;;;;17.20;68.72;100943.47;6164409;23;20426;-69
2023/08/05 12:38:15;;;;;;;4.53;2.10;;;;;;;17.07;70.07;100944.88;6164532;23;20016;-69